createdAt,value
2023-05-05T00:01:10.683Z,99067.50
2023-05-05T00:03:38.700Z,99072.63
2023-05-05T00:06:05.808Z,99071.63
2023-05-05T00:08:32.435Z,99070.34
2023-05-05T00:10:58.986Z,99059.19
2023-05-05T00:13:28.452Z,99058.84
2023-05-05T00:15:55.059Z,99053.25
2023-05-05T00:18:21.638Z,99056.13
2023-05-05T00:20:49.560Z,99052.94
2023-05-05T00:23:16.730Z,99052.72
2023-05-05T00:25:43.507Z,99053.06
2023-05-05T00:28:10.446Z,99040.13
2023-05-05T00:30:37.122Z,99034.19
2023-05-05T00:33:04.297Z,99038.03
2023-05-05T00:35:31.041Z,99036.91
2023-05-05T00:37:58.971Z,99038.34
2023-05-05T00:40:25.635Z,99035.16
2023-05-05T00:42:52.551Z,99039.31
2023-05-05T00:45:20.407Z,99034.50
2023-05-05T00:47:48.939Z,99036.72
2023-05-05T00:50:22.171Z,99030.50
2023-05-05T00:52:49.318Z,99033.88
2023-05-05T00:55:17.752Z,99027.63
2023-05-05T00:57:45.053Z,99026.34
2023-05-05T01:00:12.314Z,99028.25
2023-05-05T01:02:39.543Z,99022.03
2023-05-05T01:05:07.524Z,99026.19
2023-05-05T01:07:44.674Z,99025.22
2023-05-05T01:10:20.899Z,99023.44
2023-05-05T01:12:58.419Z,99021.53
2023-05-05T01:15:33.281Z,99015.94
2023-05-05T01:18:17.374Z,99022.31
2023-05-05T01:20:53.245Z,99012.72
2023-05-05T01:23:43.345Z,99014.00
2023-05-05T01:26:24.669Z,99012.19
2023-05-05T01:29:13.482Z,99014.75
2023-05-05T01:31:48.043Z,99010.75
2023-05-05T01:34:19.181Z,99013.28
2023-05-05T01:36:52.803Z,99009.63
2023-05-05T01:39:21.080Z,99011.03
2023-05-05T01:41:50.341Z,99010.84
2023-05-05T01:44:17.946Z,99016.75
2023-05-05T01:46:47.362Z,99004.81
2023-05-05T01:49:15.520Z,99006.41
2023-05-05T01:51:43.266Z,99011.84
2023-05-05T01:54:10.330Z,99007.38
2023-05-05T01:56:39.927Z,98997.66
2023-05-05T01:59:07.481Z,98998.13
2023-05-05T02:01:37.626Z,98999.44
2023-05-05T02:04:07.776Z,99000.72
2023-05-05T02:06:35.589Z,98993.06
2023-05-05T02:09:03.122Z,98996.59
2023-05-05T02:11:30.088Z,98999.44
2023-05-05T02:13:58.824Z,98999.13
2023-05-05T02:16:26.162Z,98993.91
2023-05-05T02:18:54.651Z,98983.88
2023-05-05T02:21:22.580Z,98989.44
2023-05-05T02:23:49.282Z,98989.63
2023-05-05T02:26:17.332Z,98992.78
2023-05-05T02:28:48.785Z,98991.69
2023-05-05T02:31:17.515Z,98990.56
2023-05-05T02:33:46.872Z,98996.97
2023-05-05T02:36:19.092Z,98990.75
2023-05-05T02:38:48.638Z,98993.47
2023-05-05T02:41:19.851Z,98987.72
2023-05-05T02:43:49.332Z,98987.41
2023-05-05T02:46:16.018Z,98988.84
2023-05-05T02:48:42.551Z,98988.34
2023-05-05T02:51:09.172Z,98985.16
2023-05-05T02:53:36.028Z,98990.88
2023-05-05T02:56:34.967Z,98977.19
2023-05-05T03:02:27.621Z,98970.75
2023-05-05T03:05:00.500Z,98983.34
2023-05-05T03:07:32.409Z,98977.44
2023-05-05T03:10:06.596Z,98978.06
2023-05-05T03:12:39.805Z,98975.19
2023-05-05T03:15:10.396Z,98974.19
2023-05-05T03:17:38.252Z,98975.97
2023-05-05T03:20:06.850Z,98974.34
2023-05-05T03:22:35.570Z,98968.59
2023-05-05T03:25:02.370Z,98965.59
2023-05-05T03:27:29.160Z,98972.91
2023-05-05T03:29:57.185Z,98972.09
2023-05-05T03:32:24.170Z,98974.03
2023-05-05T03:34:50.934Z,98975.97
2023-05-05T03:37:17.476Z,98974.81
2023-05-05T03:39:44.156Z,98961.63
2023-05-05T03:42:10.701Z,98965.44
2023-05-05T03:44:37.275Z,98968.94
2023-05-05T03:47:05.619Z,98968.59
2023-05-05T03:49:32.224Z,98970.19
2023-05-05T03:51:58.858Z,98978.50
2023-05-05T03:54:25.438Z,98975.81
2023-05-05T03:56:52.106Z,98976.72
2023-05-05T03:59:18.662Z,98991.88
2023-05-05T04:01:45.371Z,98996.19
2023-05-05T04:04:13.359Z,99000.34
2023-05-05T04:06:39.938Z,98994.84
2023-05-05T04:09:06.501Z,99005.03
2023-05-05T04:11:33.073Z,99002.78
2023-05-05T04:13:59.615Z,98999.38
2023-05-05T04:16:26.277Z,99001.63
2023-05-05T04:18:52.986Z,98999.84
2023-05-05T04:21:20.870Z,98998.25
2023-05-05T04:23:47.816Z,98999.53
2023-05-05T04:26:14.378Z,99004.66
2023-05-05T04:28:41.067Z,99007.53
2023-05-05T04:31:07.603Z,99014.22
2023-05-05T04:33:34.309Z,99004.84
2023-05-05T04:36:00.848Z,99018.78
2023-05-05T04:38:28.904Z,99009.59
2023-05-05T04:40:55.522Z,99014.09
2023-05-05T04:43:22.199Z,99013.34
2023-05-05T04:45:55.203Z,99016.25
2023-05-05T04:48:21.788Z,99012.47
2023-05-05T04:50:48.488Z,99016.16
2023-05-05T04:53:15.008Z,99013.47
2023-05-05T04:55:43.007Z,99013.00
2023-05-05T04:58:09.587Z,99022.88
2023-05-05T05:00:36.465Z,99033.63
2023-05-05T05:03:03.820Z,99025.81
2023-05-05T05:05:30.621Z,99018.78
2023-05-05T05:07:57.158Z,99013.22
2023-05-05T05:10:23.744Z,99018.16
2023-05-05T05:12:51.957Z,99020.06
2023-05-05T05:15:18.551Z,99009.50
2023-05-05T05:17:45.177Z,99012.88
2023-05-05T05:20:12.003Z,99021.16
2023-05-05T05:22:38.594Z,99009.31
2023-05-05T05:25:05.929Z,99020.16
2023-05-05T05:27:32.526Z,99024.16
2023-05-05T05:30:00.632Z,99026.97
2023-05-05T05:32:27.179Z,99020.06
2023-05-05T05:34:53.721Z,99025.16
2023-05-05T05:37:20.343Z,99026.72
2023-05-05T05:39:51.654Z,99034.19
2023-05-05T05:42:18.219Z,99036.38
2023-05-05T05:44:44.756Z,99042.59
2023-05-05T05:47:12.677Z,99040.16
2023-05-05T05:49:39.190Z,99039.81
2023-05-05T05:52:05.706Z,99037.25
2023-05-05T05:54:32.398Z,99036.44
2023-05-05T05:56:58.922Z,99032.25
2023-05-05T05:59:25.460Z,99030.81
2023-05-05T06:01:52.069Z,99034.50
2023-05-05T06:04:20.196Z,99035.44
2023-05-05T06:06:46.787Z,99036.38
2023-05-05T06:09:13.362Z,99040.09
2023-05-05T06:11:39.950Z,99035.59
2023-05-05T06:14:06.653Z,99034.47
2023-05-05T06:16:33.381Z,99024.75
2023-05-05T06:19:00.137Z,99031.44
2023-05-05T06:21:28.153Z,99034.06
2023-05-05T06:23:54.721Z,99028.44
2023-05-05T06:26:21.298Z,99030.28
2023-05-05T06:28:47.831Z,99029.59
2023-05-05T06:31:14.386Z,99033.66
2023-05-05T06:33:41.327Z,99035.06
2023-05-05T06:36:08.455Z,99046.28
2023-05-05T06:38:36.594Z,99039.34
2023-05-05T06:41:03.533Z,99038.94
2023-05-05T06:43:30.119Z,99042.47
2023-05-05T06:45:58.442Z,99060.56
2023-05-05T06:48:25.087Z,99061.19
2023-05-05T06:50:51.632Z,99068.94
2023-05-05T06:53:18.254Z,99063.19
2023-05-05T06:55:47.451Z,99064.97
2023-05-05T06:58:14.013Z,99062.50
2023-05-05T07:00:40.940Z,99067.44
2023-05-05T07:03:07.707Z,99058.84
2023-05-05T07:05:34.355Z,99059.63
2023-05-05T07:08:00.911Z,99056.13
2023-05-05T07:10:27.933Z,99049.63
2023-05-05T07:12:56.006Z,99051.03
2023-05-05T07:15:28.866Z,99052.19
2023-05-05T07:17:56.049Z,99045.09
2023-05-05T07:20:22.635Z,99056.38
2023-05-05T07:22:49.176Z,99052.28
2023-05-05T07:25:15.784Z,99049.47
2023-05-05T07:27:42.412Z,99048.75
2023-05-05T07:30:14.252Z,99046.88
2023-05-05T07:32:43.222Z,99039.47
2023-05-05T07:35:10.316Z,99034.56
2023-05-05T07:37:36.910Z,99041.88
2023-05-05T07:40:04.025Z,99039.13
2023-05-05T07:42:30.617Z,99037.19
2023-05-05T07:44:57.115Z,99037.25
2023-05-05T07:47:25.215Z,99038.16
2023-05-05T07:49:51.749Z,99026.22
2023-05-05T07:52:18.477Z,99037.06
2023-05-05T07:54:45.082Z,99036.16
2023-05-05T07:57:11.723Z,99044.31
2023-05-05T07:59:38.252Z,99034.47
2023-05-05T08:02:04.788Z,99040.13
2023-05-05T08:04:32.781Z,99048.44
2023-05-05T08:06:59.382Z,99043.72
2023-05-05T08:09:25.985Z,99041.38
2023-05-05T08:11:52.517Z,99046.00
2023-05-05T08:14:27.214Z,99044.09
2023-05-05T08:16:53.757Z,99040.34
2023-05-05T08:19:28.861Z,99041.47
2023-05-05T08:21:58.829Z,99054.78
2023-05-05T08:24:26.653Z,99043.50
2023-05-05T08:26:53.189Z,99040.00
2023-05-05T08:29:19.927Z,99054.97
2023-05-05T08:31:46.572Z,99044.66
2023-05-05T08:34:13.214Z,99050.94
2023-05-05T08:36:39.789Z,99058.03
2023-05-05T08:39:07.968Z,99053.44
2023-05-05T08:41:35.808Z,99048.69
2023-05-05T08:44:02.360Z,99055.81
2023-05-05T08:46:29.886Z,99049.88
2023-05-05T08:48:58.623Z,99052.25
2023-05-05T08:51:29.521Z,99052.25
2023-05-05T08:53:57.693Z,99060.16
2023-05-05T08:56:31.989Z,99061.34
2023-05-05T08:58:59.527Z,99066.84
2023-05-05T09:01:26.254Z,99063.69
2023-05-05T09:03:53.205Z,99067.16
2023-05-05T09:06:20.759Z,99072.72
2023-05-05T09:08:47.450Z,99065.56
2023-05-05T09:11:14.506Z,99064.06
2023-05-05T09:13:42.370Z,99066.72
2023-05-05T09:16:09.193Z,99061.47
2023-05-05T09:18:37.532Z,99058.03
2023-05-05T09:21:18.947Z,99066.63
2023-05-05T09:24:08.159Z,99067.63
2023-05-05T09:26:36.999Z,99073.81
2023-05-05T09:29:06.290Z,99076.44
2023-05-05T09:31:34.259Z,99074.84
2023-05-05T09:34:01.366Z,99083.94
2023-05-05T09:36:47.613Z,99078.91
2023-05-05T09:39:14.631Z,99081.47
2023-05-05T09:41:42.686Z,99071.84
2023-05-05T09:44:11.169Z,99067.66
2023-05-05T09:46:38.104Z,99067.63
2023-05-05T09:49:14.755Z,99067.78
2023-05-05T09:51:41.417Z,99068.53
2023-05-05T09:54:08.169Z,99074.72
2023-05-05T09:56:38.831Z,99069.78
2023-05-05T09:59:09.932Z,99064.53
2023-05-05T10:01:36.594Z,99060.09
2023-05-05T10:04:03.280Z,99057.16
2023-05-05T10:06:44.463Z,99052.69
2023-05-05T10:09:11.051Z,99058.59
2023-05-05T10:11:38.616Z,99055.13
2023-05-05T10:14:07.466Z,99048.56
2023-05-05T10:16:35.885Z,99050.09
2023-05-05T10:19:03.404Z,99041.94
2023-05-05T10:21:33.877Z,99040.78
2023-05-05T10:24:09.493Z,99039.41
2023-05-05T10:26:41.042Z,99029.97
2023-05-05T10:29:13.406Z,99031.75
2023-05-05T10:31:45.347Z,99018.06
2023-05-05T10:34:18.417Z,99019.75
2023-05-05T10:36:45.505Z,99018.97
2023-05-05T10:39:15.071Z,99020.03
2023-05-05T10:41:42.422Z,99015.19
2023-05-05T10:44:09.258Z,99008.25
2023-05-05T10:46:36.450Z,99009.97
2023-05-05T10:49:12.496Z,99010.91
2023-05-05T10:51:46.905Z,99010.47
2023-05-05T10:54:19.619Z,99005.72
2023-05-05T10:56:47.123Z,99002.31
2023-05-05T10:59:41.165Z,99011.31
2023-05-05T11:02:25.397Z,99002.78
2023-05-05T11:05:09.094Z,98988.75
2023-05-05T11:07:36.056Z,98993.50
2023-05-05T11:10:07.518Z,98989.94
2023-05-05T11:13:15.744Z,98986.03
2023-05-05T11:15:42.336Z,98986.13
2023-05-05T11:18:29.430Z,98974.91
2023-05-05T11:21:08.665Z,98969.56
2023-05-05T11:23:35.225Z,98967.66
2023-05-05T11:26:01.811Z,98960.63
2023-05-05T11:28:29.955Z,98957.00
2023-05-05T11:31:15.828Z,98944.28
2023-05-05T11:33:42.475Z,98941.94
2023-05-05T11:36:11.777Z,98934.88
2023-05-05T11:38:48.423Z,98929.22
2023-05-05T11:41:28.016Z,98934.09
2023-05-05T11:44:08.787Z,98924.31
2023-05-05T11:46:35.703Z,98918.91
2023-05-05T11:49:02.527Z,98923.81
2023-05-05T11:51:31.415Z,98917.94
2023-05-05T11:53:59.144Z,98918.16
2023-05-05T11:56:25.938Z,98921.97
2023-05-05T11:59:09.084Z,98914.16
2023-05-05T12:01:39.160Z,98920.97
2023-05-05T12:04:05.813Z,98905.78
2023-05-05T12:06:34.162Z,98910.00
2023-05-05T12:09:01.254Z,98908.38
2023-05-05T12:11:27.810Z,98909.91
2023-05-05T12:14:15.082Z,98915.69
2023-05-05T12:16:53.466Z,98913.75
2023-05-05T12:19:20.165Z,98911.63
2023-05-05T12:21:48.155Z,98913.56
2023-05-05T12:24:15.254Z,98914.06
2023-05-05T12:26:41.971Z,98916.00
2023-05-05T12:29:08.555Z,98910.84
2023-05-05T12:31:35.600Z,98958.66
2023-05-05T12:34:06.058Z,98960.81
2023-05-05T12:36:33.372Z,98964.34
2023-05-05T12:39:01.521Z,98967.84
2023-05-05T12:41:28.548Z,98962.59
2023-05-05T12:43:55.923Z,98961.34
2023-05-05T12:46:23.168Z,98974.31
2023-05-05T12:49:00.228Z,98963.19
2023-05-05T12:51:27.159Z,98951.03
2023-05-05T12:54:04.182Z,98960.81
2023-05-05T12:56:35.306Z,98949.16
2023-05-05T12:59:03.836Z,98942.34
2023-05-05T13:01:30.620Z,98936.00
2023-05-05T13:04:08.876Z,98922.63
2023-05-05T13:06:35.723Z,98915.56
2023-05-05T13:09:03.754Z,98913.06
2023-05-05T13:11:30.346Z,98911.03
2023-05-05T13:13:56.896Z,98918.13
2023-05-05T13:16:23.648Z,98919.56
2023-05-05T13:18:50.776Z,98904.63
2023-05-05T13:21:17.499Z,98915.59
2023-05-05T13:23:44.402Z,98911.28
2023-05-05T13:26:13.096Z,98920.31
2023-05-05T13:28:40.076Z,98926.97
2023-05-05T13:31:06.944Z,98923.44
2023-05-05T13:33:34.495Z,98927.69
2023-05-05T13:36:01.361Z,98929.38
2023-05-05T13:38:28.068Z,98921.16
2023-05-05T13:40:54.784Z,98927.66
2023-05-05T13:43:22.813Z,98927.00
2023-05-05T13:45:49.392Z,98922.34
2023-05-05T13:48:15.926Z,98921.03
2023-05-05T13:50:42.503Z,98911.00
2023-05-05T13:53:09.026Z,98904.69
2023-05-05T13:55:35.789Z,98899.59
2023-05-05T13:58:02.349Z,98888.72
2023-05-05T14:00:30.263Z,98893.94
2023-05-05T14:02:56.970Z,98880.91
2023-05-05T14:05:23.589Z,98870.31
2023-05-05T14:07:50.164Z,98872.06
2023-05-05T14:10:16.742Z,98862.94
2023-05-05T14:12:43.330Z,98868.00
2023-05-05T14:15:10.660Z,98863.22
2023-05-05T14:17:38.862Z,98860.91
2023-05-05T14:20:06.816Z,98858.03
2023-05-05T14:22:33.623Z,98851.00
2023-05-05T14:25:00.265Z,98849.66
2023-05-05T14:27:26.969Z,98845.63
2023-05-05T14:29:53.628Z,98839.00
2023-05-05T14:32:20.280Z,98828.19
2023-05-05T14:34:50.312Z,98826.44
2023-05-05T14:37:21.963Z,98817.66
2023-05-05T14:39:49.969Z,98809.06
2023-05-05T14:42:16.511Z,98816.06
2023-05-05T14:44:44.534Z,98816.97
2023-05-05T14:47:13.960Z,98809.66
2023-05-05T14:49:40.704Z,98817.16
2023-05-05T14:52:11.141Z,98823.03
2023-05-05T14:54:37.706Z,98825.47
2023-05-05T14:57:04.610Z,98824.06
2023-05-05T14:59:31.285Z,98824.34
2023-05-05T15:01:57.994Z,98826.63
2023-05-05T15:04:24.661Z,98831.25
2023-05-05T15:06:51.606Z,98836.84
2023-05-05T15:09:19.539Z,98837.91
2023-05-05T15:11:46.243Z,98831.50
2023-05-05T15:14:12.930Z,98841.41
2023-05-05T15:16:39.604Z,98851.44
2023-05-05T15:19:06.316Z,98863.72
2023-05-05T15:21:35.717Z,98873.78
2023-05-05T15:24:02.309Z,98899.81
2023-05-05T15:26:31.368Z,98926.47
2023-05-05T15:28:57.923Z,98929.66
2023-05-05T15:31:24.602Z,98923.94
2023-05-05T15:33:51.185Z,98925.13
2023-05-05T15:36:17.873Z,98938.72
2023-05-05T15:38:44.454Z,98930.06
2023-05-05T15:41:11.184Z,98939.00
2023-05-05T15:43:39.083Z,98945.31
2023-05-05T15:46:05.890Z,98940.75
2023-05-05T15:48:32.526Z,98939.56
2023-05-05T15:50:59.122Z,98940.28
2023-05-05T15:53:25.661Z,98942.97
2023-05-05T15:55:52.331Z,98946.53
2023-05-05T15:58:18.884Z,98955.22
2023-05-05T16:00:46.768Z,98953.59
2023-05-05T16:03:13.398Z,98954.81
2023-05-05T16:05:39.945Z,98949.72
2023-05-05T16:08:06.491Z,98945.34
2023-05-05T16:10:33.050Z,98947.19
2023-05-05T16:12:59.594Z,98953.47
2023-05-05T16:15:26.137Z,98962.25
2023-05-05T16:17:54.173Z,98970.44
2023-05-05T16:20:22.200Z,98964.28
2023-05-05T16:22:48.785Z,98984.31
2023-05-05T16:25:18.016Z,98999.03
2023-05-05T16:27:44.580Z,98998.03
2023-05-05T16:30:12.256Z,98987.50
2023-05-05T16:32:38.891Z,98967.03
2023-05-05T16:35:07.552Z,98947.22
2023-05-05T16:37:34.718Z,98908.59
2023-05-05T16:40:01.304Z,98931.44
2023-05-05T16:42:27.870Z,98934.81
2023-05-05T16:44:54.413Z,98937.41
2023-05-05T16:47:21.088Z,98940.41
2023-05-05T16:49:47.652Z,98938.53
2023-05-05T16:52:15.537Z,98948.09
2023-05-05T16:54:42.186Z,98941.78
2023-05-05T16:57:08.785Z,98945.31
2023-05-05T16:59:35.376Z,98949.72
2023-05-05T17:02:01.956Z,98958.81
2023-05-05T17:04:28.482Z,98955.34
2023-05-05T17:06:55.019Z,98962.00
2023-05-05T17:09:22.903Z,98948.38
2023-05-05T17:11:51.688Z,98944.78
2023-05-05T17:14:18.224Z,98937.13
2023-05-05T17:16:44.935Z,98940.19
2023-05-05T17:19:14.417Z,98944.44
2023-05-05T17:21:40.975Z,98942.38
2023-05-05T17:24:08.349Z,98939.66
2023-05-05T17:26:36.242Z,98935.53
2023-05-05T17:29:02.861Z,98943.72
2023-05-05T17:31:29.426Z,98935.34
2023-05-05T17:33:56.064Z,98946.19
2023-05-05T17:36:22.679Z,98945.41
2023-05-05T17:38:49.283Z,98945.00
2023-05-05T17:41:15.887Z,98941.31
2023-05-05T17:43:43.785Z,98952.84
2023-05-05T17:46:10.354Z,98957.56
2023-05-05T17:48:36.962Z,98952.09
2023-05-05T17:51:03.640Z,98958.59
2023-05-05T17:53:30.249Z,98965.75
2023-05-05T17:55:56.787Z,98967.13
2023-05-05T17:58:23.445Z,98968.03
2023-05-05T18:00:51.453Z,98967.34
2023-05-05T18:03:18.354Z,98969.34
2023-05-05T18:05:45.119Z,98975.91
2023-05-05T18:08:11.665Z,98967.03
2023-05-05T18:10:38.404Z,98973.31
2023-05-05T18:13:05.054Z,98969.91
2023-05-05T18:15:31.756Z,98965.44
2023-05-05T18:17:59.752Z,98972.16
2023-05-05T18:20:26.384Z,98965.06
2023-05-05T18:22:53.127Z,98968.16
2023-05-05T18:25:19.934Z,98969.69
2023-05-05T18:27:46.466Z,98973.91
2023-05-05T18:30:13.367Z,98979.72
2023-05-05T18:32:39.981Z,98985.47
2023-05-05T18:35:09.186Z,98984.34
2023-05-05T18:37:35.814Z,98995.63
2023-05-05T18:40:02.559Z,98985.03
2023-05-05T18:42:29.137Z,98989.63
2023-05-05T18:44:55.715Z,98994.22
2023-05-05T18:47:22.259Z,99000.16
2023-05-05T18:49:48.819Z,98998.06
2023-05-05T18:52:16.794Z,98992.47
2023-05-05T18:54:43.374Z,99001.75
2023-05-05T18:57:10.002Z,98998.50
2023-05-05T18:59:36.551Z,99002.75
2023-05-05T19:02:03.086Z,99005.91
2023-05-05T19:04:31.759Z,99000.06
2023-05-05T19:06:58.632Z,98997.78
2023-05-05T19:09:26.706Z,99006.72
2023-05-05T19:11:53.279Z,99004.69
2023-05-05T19:14:19.874Z,98998.66
2023-05-05T19:16:46.668Z,98998.59
2023-05-05T19:19:13.351Z,99002.38
2023-05-05T19:21:39.948Z,98999.22
2023-05-05T19:24:09.461Z,98997.97
2023-05-05T19:26:37.396Z,98997.06
2023-05-05T19:29:04.160Z,99005.19
2023-05-05T19:31:31.158Z,99009.75
2023-05-05T19:34:00.917Z,99009.25
2023-05-05T19:36:28.132Z,99009.25
2023-05-05T19:38:55.665Z,99012.66
2023-05-05T19:41:22.439Z,99018.13
2023-05-05T19:43:50.405Z,99023.72
2023-05-05T19:46:17.274Z,99021.06
2023-05-05T19:48:43.860Z,99023.00
2023-05-05T19:51:10.440Z,99010.03
2023-05-05T19:53:36.956Z,99016.19
2023-05-05T19:56:03.960Z,99014.59
2023-05-05T19:58:30.512Z,99017.34
2023-05-05T20:00:58.467Z,99023.16
2023-05-05T20:03:25.318Z,99019.72
2023-05-05T20:05:51.853Z,99022.13
2023-05-05T20:08:18.450Z,99030.31
2023-05-05T20:10:45.015Z,99029.97
2023-05-05T20:13:11.596Z,99024.41
2023-05-05T20:15:38.423Z,99027.59
2023-05-05T20:18:06.491Z,99022.13
2023-05-05T20:20:33.269Z,99031.81
2023-05-05T20:22:59.784Z,99034.53
2023-05-05T20:25:26.742Z,99032.75
2023-05-05T20:27:53.270Z,99033.56
2023-05-05T20:30:19.875Z,99038.56
2023-05-05T20:32:46.473Z,99074.13
2023-05-05T20:35:14.466Z,99070.63
2023-05-05T20:37:41.459Z,99070.69
2023-05-05T20:40:09.445Z,99072.06
2023-05-05T20:42:36.454Z,99076.66
2023-05-05T20:45:03.376Z,99076.34
2023-05-05T20:47:30.019Z,99067.56
2023-05-05T20:49:56.652Z,99062.22
2023-05-05T20:52:24.598Z,99065.16
2023-05-05T20:54:51.150Z,99061.19
2023-05-05T20:57:17.762Z,99054.81
2023-05-05T20:59:44.376Z,99048.00
2023-05-05T21:02:11.003Z,99048.91
2023-05-05T21:04:37.832Z,99038.91
2023-05-05T21:07:04.433Z,99029.44
2023-05-05T21:09:32.575Z,99028.97
2023-05-05T21:11:59.228Z,99023.63
2023-05-05T21:14:25.921Z,99029.69
2023-05-05T21:16:52.537Z,99028.09
2023-05-05T21:19:27.933Z,99028.78
2023-05-05T21:21:54.586Z,99035.97
2023-05-05T21:24:21.124Z,99036.63
2023-05-05T21:26:49.073Z,99040.50
2023-05-05T21:29:15.663Z,99038.91
2023-05-05T21:31:42.376Z,99028.69
2023-05-05T21:34:09.130Z,99026.28
2023-05-05T21:36:35.674Z,99035.50
2023-05-05T21:39:02.328Z,99039.59
2023-05-05T21:41:29.087Z,99041.06
2023-05-05T21:43:57.873Z,99040.28
2023-05-05T21:46:24.635Z,99034.16
2023-05-05T21:48:51.226Z,99029.16
2023-05-05T21:51:18.809Z,99036.06
2023-05-05T21:53:45.471Z,99026.63
2023-05-05T21:56:12.025Z,99032.47
2023-05-05T21:58:40.494Z,99030.72
2023-05-05T22:01:08.498Z,99034.13
2023-05-05T22:03:36.308Z,99030.06
2023-05-05T22:06:03.022Z,99034.03
2023-05-05T22:08:29.558Z,99032.63
2023-05-05T22:10:56.110Z,99031.28
2023-05-05T22:13:22.720Z,99034.53
2023-05-05T22:15:49.552Z,99028.28
2023-05-05T22:18:17.621Z,99027.59
2023-05-05T22:20:44.269Z,99027.91
2023-05-05T22:23:10.978Z,99023.78
2023-05-05T22:25:37.482Z,99021.44
2023-05-05T22:28:04.583Z,99016.31
2023-05-05T22:30:32.402Z,99019.81
2023-05-05T22:32:59.025Z,99015.97
2023-05-05T22:35:27.382Z,99017.56
2023-05-05T22:37:54.071Z,99015.59
2023-05-05T22:40:20.679Z,99018.47
2023-05-05T22:42:47.262Z,99018.47
2023-05-05T22:45:13.913Z,99019.94
2023-05-05T22:47:40.651Z,99023.13
2023-05-05T22:50:08.324Z,99026.97
2023-05-05T22:52:36.363Z,99034.03
2023-05-05T22:55:03.091Z,99025.97
2023-05-05T22:57:31.786Z,99029.50
2023-05-05T23:00:00.117Z,99021.66
2023-05-05T23:02:27.091Z,99023.59
2023-05-05T23:04:53.901Z,99031.78
2023-05-05T23:07:20.471Z,99031.78
2023-05-05T23:09:48.493Z,99020.41
2023-05-05T23:12:15.155Z,99024.25
2023-05-05T23:14:41.699Z,99024.72
2023-05-05T23:17:08.234Z,99022.66
2023-05-05T23:19:35.158Z,99021.06
2023-05-05T23:22:01.988Z,99019.94
2023-05-05T23:24:29.001Z,99015.19
2023-05-05T23:26:59.046Z,99015.97
2023-05-05T23:29:28.158Z,99017.75
2023-05-05T23:31:54.776Z,99012.19
2023-05-05T23:34:21.456Z,99012.88
2023-05-05T23:36:48.097Z,99008.41
2023-05-05T23:39:14.868Z,99017.63
2023-05-05T23:41:41.452Z,99009.63
2023-05-05T23:44:09.552Z,99009.84
2023-05-05T23:46:36.540Z,99016.28
2023-05-05T23:49:03.216Z,99013.94
2023-05-05T23:51:29.842Z,99028.22
2023-05-05T23:53:56.731Z,99014.78
2023-05-05T23:56:23.465Z,99024.09
2023-05-05T23:58:50.082Z,99031.81
